Flight Track Log - Related Links

Times and Time Zones

All times are in EDT time to prevent confusion due to time zone crossing. See the UAL3835 flight status page for this flight to view local times or setup timezone preferences in your user account.

Time Position Orientation Groundspeed Altitude Reporting Facility
EDT Latitude Longitude Course Direction KTS MPH feet Rate Location/Type
Sun 02:14:10 PM 41.9167 -87.9000 189° South 190 219 2,500  Level Chicago TRACON
Sun 02:15:57 PM 41.8139 -87.8444 158° South 255 293 6,000 2,082 Climbing Chicago Center
Sun 02:17:00 PM 41.7394 -87.4398 90° East  Level Estimated
Sun 02:17:00 PM 41.7450 -87.7989 154° Southeast 275 316 8,400  Level Chicago Center
Sun 02:18:00 PM 41.6786 -87.3236 169° South  Level Estimated
Sun 02:18:02 PM 41.6717 -87.7453 151° Southeast 296 341 10,200  Level Chicago Center
Sun 02:19:00 PM 41.5765 -87.3453 189° South  Level FlightAware Approximate
Sun 02:19:04 PM 41.5936 -87.6900 152° Southeast 313 360 12,500  Level Chicago Center
Sun 02:20:06 PM 41.5131 -87.6339 152° Southeast 323 372 13,600 1,065 Climbing Chicago Center
Sun 02:21:08 PM 41.4006 -87.5686 156° South 369 425 14,700 1,161 Climbing Chicago Center
Sun 02:22:10 PM 41.2981 -87.5500 172° South 371 427 16,000 1,210 Climbing Chicago Center
Sun 02:23:12 PM 41.1936 -87.5322 173° South 375 432 17,200 1,016 Climbing Chicago Center
Sun 02:24:14 PM 41.0900 -87.5025 168° South 379 436 18,100 1,016 Climbing Chicago Center
Sun 02:25:16 PM 40.9850 -87.4761 169° South 383 441 19,300 1,161 Climbing Chicago Center
Sun 02:26:18 PM 40.8797 -87.4472 168° South 386 444 20,500 1,306 Climbing Chicago Center
Sun 02:27:20 PM 40.7486 -87.4139 169° South 395 455 22,000 1,306 Climbing Chicago Center
Sun 02:28:22 PM 40.6422 -87.3844 168° South 394 453 23,200 1,152 Climbing Chicago Center
Sun 02:29:25 PM 40.5339 -87.3564 169° South 396 456 24,400 1,200 Climbing Chicago Center
Sun 02:30:27 PM 40.4286 -87.3111 162° South 396 456 25,700 1,210 Climbing Chicago Center
Sun 02:31:29 PM 40.3375 -87.2281 145° Southeast 398 458 26,900 1,210 Climbing Chicago Center
Sun 02:32:31 PM 40.2472 -87.1453 145° Southeast 397 457 28,200 1,210 Climbing Chicago Center
Sun 02:33:33 PM 40.1589 -87.0622 144° Southeast 394 453 29,400 1,297 Climbing Chicago Center
Sun 02:34:22 PM 40.0692 -86.9783 144° Southeast 391 450 30,600 1,243 Climbing Indianapolis Center
Sun 02:35:24 PM 39.9881 -86.8872 139° Southeast 391 450 31,700 1,016 Climbing Indianapolis Center
Sun 02:36:26 PM 39.9267 -86.7650 123° Southeast 403 464 32,700 629 Climbing Indianapolis Center
Sun 02:37:28 PM 39.8647 -86.6406 123° Southeast 409 471 33,000 145 Climbing Indianapolis Center
Sun 02:38:30 PM 39.7978 -86.5067 123° Southeast 436 502 33,000  Level Indianapolis Center
Sun 02:39:32 PM 39.7236 -86.3603 123° Southeast 459 528 33,000  Level Indianapolis Center
Sun 02:40:34 PM 39.6464 -86.2094 124° Southeast 466 536 33,000  Level Indianapolis Center
Sun 02:41:36 PM 39.5769 -86.0728 123° Southeast 462 532 33,000  Level Indianapolis Center
Sun 02:42:38 PM 39.5075 -85.9383 124° Southeast 455 524 33,000  Level Indianapolis Center
Sun 02:43:40 PM 39.4225 -85.7736 124° Southeast 459 528 33,000  Level Indianapolis Center
Sun 02:44:42 PM 39.3608 -85.6264 118° Southeast 471 542 33,000  Level Indianapolis Center
Sun 02:45:44 PM 39.3256 -85.4697 106° East 463 533 33,000  Level Indianapolis Center
Sun 02:46:46 PM 39.2903 -85.3150 106° East 457 526 33,000  Level Indianapolis Center
Sun 02:47:48 PM 39.2542 -85.1614 107° East 453 521 33,000  Level Indianapolis Center
Sun 02:48:50 PM 39.2108 -84.9717 106° East 458 527 33,000  Level Indianapolis Center
Sun 02:49:52 PM 39.1756 -84.8131 106° East 462 532 33,000  Level Indianapolis Center
Sun 02:50:54 PM 39.1383 -84.6556 107° East 461 531 33,000 -192 Level Indianapolis Center
Sun 02:51:57 PM 39.1028 -84.5006 106° East 459 528 32,600 -864 Descending Indianapolis Center
Sun 02:52:59 PM 39.0669 -84.3467 107° East 454 522 31,200 -774 Descending Indianapolis Center
Sun 02:54:01 PM 39.0225 -84.1639 107° East 451 519 31,000 -97 Descending Indianapolis Center
Sun 02:55:03 PM 38.9875 -84.0133 107° East 443 510 31,000  Level Indianapolis Center
Sun 02:56:05 PM 38.9497 -83.8611 108° East 449 517 31,000 -532 Level Indianapolis Center
Sun 02:57:07 PM 38.9128 -83.7067 107° East 453 521 29,900 -1,306 Descending Indianapolis Center
Sun 02:58:09 PM 38.8711 -83.5331 107° East 456 525 28,300 -1,403 Descending Indianapolis Center
Sun 02:59:11 PM 38.8375 -83.3967 108° East 459 528 27,000 -1,452 Descending Indianapolis Center
Sun 03:00:13 PM 38.7919 -83.2136 108° East 454 522 25,300 -1,403 Descending Indianapolis Center
Sun 03:01:15 PM 38.7558 -83.0686 108° East 453 521 24,100 -919 Descending Indianapolis Center
Sun 03:02:17 PM 38.7186 -82.9194 108° East 443 510 23,400 -1,113 Descending Indianapolis Center
Sun 03:03:19 PM 38.6731 -82.7400 108° East 443 510 21,800 -1,887 Descending Indianapolis Center
Sun 03:04:21 PM 38.6369 -82.5967 108° East 435 501 19,500 -2,419 Descending Indianapolis Center
Sun 03:05:23 PM 38.6031 -82.4647 108° East 392 451 16,800 -2,565 Descending Indianapolis Center
Sun 03:06:25 PM 38.5703 -82.3375 108° East 382 440 14,200 -2,323 Descending Indianapolis Center
Sun 03:07:27 PM 38.5453 -82.2161 105° East 359 413 12,000 -1,548 Descending Indianapolis Center
Sun 03:08:29 PM 38.5553 -82.1033 83° East 325 374 11,000 -484 Descending Indianapolis Center
Sun 03:09:31 PM 38.5667 -81.9675 84° East 320 368 11,000  Level Indianapolis Center
Sun 03:10:33 PM 38.5747 -81.8678 84° East 291 335 11,000 -581 Level Indianapolis Center
Sun 03:11:35 PM 38.5833 -81.7672 84° East 287 330 9,800 -1,500 Descending Indianapolis Center
Sun 03:12:37 PM 38.5850 -81.6714 89° East 281 323 7,900 -1,742 Descending Indianapolis Center
Sun 03:13:39 PM 38.5547 -81.5844 114° Southeast 273 314 6,200 -1,776 Descending Indianapolis Center
Sun 03:14:42 PM 38.5217 -81.4861 113° Southeast 258 297 4,200 -1,488 Descending Indianapolis Center
Sun 03:15:44 PM 38.4731 -81.4606 158° South 230 265 3,100 -823 Descending Indianapolis Center
Sun 03:16:46 PM 38.4342 -81.5114 226° Southwest 212 244 2,500 -726 Descending Indianapolis Center
Sun 03:17:48 PM 38.4047 -81.5544 229° Southwest 184 212 1,600 -629 Descending Indianapolis Center
Sun 03:18:50 PM 38.3742 -81.5964 227° Southwest 167 192 1,200 -387 Descending Indianapolis Center

Login

Don't have an account? Register now (free) for customized features, flight alerts, and more!